Time;durP1;ratioP1;P1;durP2;ratioP2;P2;SDS_P1;SDS_P2;PMS_P1;PMS_P2;Temp;Humidity;BMP_temperature;BMP_pressure;BME280_temperature;BME280_humidity;BME280_pressure;Samples;Min_cycle;Max_cycle;Signal;HPM_P1;HPM_P2
2022/09/27 00:01:35;;;;;;;6.82;0.50;;;11.00;99.90;;;;;;5127573;27;20453;-74
2022/09/27 00:04:01;;;;;;;4.47;0.40;;;11.00;99.90;;;;;;5127048;27;20516;-72
2022/09/27 00:06:29;;;;;;;5.20;0.40;;;11.00;99.90;;;;;;5128340;27;20410;-72
2022/09/27 00:08:55;;;;;;;5.32;0.35;;;11.00;99.90;;;;;;5095468;28;20403;-73
2022/09/27 00:11:36;;;;;;;4.88;0.47;;;11.00;99.90;;;;;;5107780;28;20403;-73
2022/09/27 00:14:03;;;;;;;5.20;0.70;;;11.00;99.90;;;;;;5108495;27;20776;-72
2022/09/27 00:16:31;;;;;;;3.00;0.30;;;11.00;99.90;;;;;;5106782;28;20419;-73
2022/09/27 00:18:59;;;;;;;3.65;0.30;;;11.00;99.90;;;;;;5107404;28;20518;-73
2022/09/27 00:21:25;;;;;;;5.55;0.38;;;10.90;99.90;;;;;;5107507;27;20411;-73
2022/09/27 00:23:51;;;;;;;3.45;0.30;;;10.90;99.90;;;;;;5108104;28;20462;-74
2022/09/27 00:26:16;;;;;;;4.03;0.50;;;10.90;99.90;;;;;;5108168;28;20458;-73
2022/09/27 00:28:42;;;;;;;6.67;0.40;;;10.90;99.90;;;;;;5107494;28;20392;-73
2022/09/27 00:31:23;;;;;;;5.28;0.40;;;10.90;99.90;;;;;;5091050;28;20408;-73
2022/09/27 00:33:51;;;;;;;5.38;0.50;;;10.90;99.90;;;;;;5110025;28;20423;-73
2022/09/27 00:36:18;;;;;;;3.10;0.35;;;10.90;99.90;;;;;;5108170;28;20894;-73
2022/09/27 00:38:44;;;;;;;5.03;0.60;;;10.90;99.90;;;;;;5112657;28;20411;-73
2022/09/27 00:41:15;;;;;;;4.72;0.60;;;10.90;99.90;;;;;;5120428;27;20400;-73
2022/09/27 00:43:53;;;;;;;4.55;0.50;;;10.90;99.90;;;;;;5106834;28;20832;-73
2022/09/27 00:46:45;;;;;;;3.78;0.30;;;10.90;99.90;;;;;;5107108;28;20439;-73
2022/09/27 00:49:23;;;;;;;3.78;0.70;;;10.80;99.90;;;;;;5107529;28;20454;-73
2022/09/27 00:51:56;;;;;;;2.92;0.40;;;10.80;99.90;;;;;;5110656;28;20933;-73
2022/09/27 00:54:25;;;;;;;4.05;0.28;;;10.80;99.90;;;;;;5128062;27;20753;-73
2022/09/27 00:56:51;;;;;;;2.35;0.20;;;10.80;99.90;;;;;;5127894;27;20535;-74
2022/09/27 00:59:29;;;;;;;4.13;0.30;;;10.80;99.90;;;;;;5129634;27;20408;-73
2022/09/27 01:01:55;;;;;;;7.38;0.47;;;10.80;99.90;;;;;;5119757;28;20781;-74
2022/09/27 01:04:23;;;;;;;4.18;0.30;;;10.80;99.90;;;;;;5117741;28;20428;-74
2022/09/27 01:06:49;;;;;;;6.90;0.50;;;10.80;99.90;;;;;;5111167;28;20408;-73
2022/09/27 01:09:15;;;;;;;3.50;0.40;;;10.80;99.90;;;;;;5106530;28;20960;-74
2022/09/27 01:12:00;;;;;;;3.15;0.40;;;10.80;99.90;;;;;;5106710;28;20436;-74
2022/09/27 01:14:44;;;;;;;4.00;0.30;;;10.70;99.90;;;;;;5107501;28;20529;-73
2022/09/27 01:17:26;;;;;;;5.20;0.40;;;10.70;99.90;;;;;;5104395;27;20410;-74
2022/09/27 01:20:36;;;;;;;2.13;0.30;;;10.70;99.90;;;;;;5126577;27;20896;-73
2022/09/27 01:23:26;;;;;;;4.47;0.43;;;10.70;99.90;;;;;;5107236;28;20766;-73
2022/09/27 01:26:06;;;;;;;6.22;0.30;;;10.70;99.90;;;;;;5126736;27;20415;-73
2022/09/27 01:29:03;;;;;;;3.30;0.32;;;10.70;99.90;;;;;;5127116;27;20403;-73
2022/09/27 01:31:55;;;;;;;3.63;0.30;;;10.70;99.90;;;;;;5128101;27;20411;-73
2022/09/27 01:34:44;;;;;;;3.53;0.30;;;10.70;99.90;;;;;;5131534;27;20742;-73
2022/09/27 01:37:16;;;;;;;3.13;0.23;;;10.60;99.90;;;;;;5099435;28;20754;-73
2022/09/27 01:39:44;;;;;;;4.15;0.30;;;10.60;99.90;;;;;;5120320;27;20414;-73
2022/09/27 01:42:20;;;;;;;5.13;0.38;;;10.60;99.90;;;;;;5130956;27;20496;-73
2022/09/27 01:44:49;;;;;;;5.38;0.30;;;10.60;99.90;;;;;;5128695;27;20430;-73
2022/09/27 01:47:25;;;;;;;4.03;0.50;;;10.70;99.90;;;;;;5130881;27;20906;-73
2022/09/27 01:50:07;;;;;;;3.05;0.40;;;10.60;99.90;;;;;;5131007;27;20410;-73
2022/09/27 01:52:55;;;;;;;5.18;0.40;;;10.70;99.90;;;;;;5130767;27;20482;-73
2022/09/27 01:55:25;;;;;;;5.88;0.57;;;10.60;99.90;;;;;;5124391;27;20492;-73
2022/09/27 01:57:58;;;;;;;5.57;0.40;;;10.60;99.90;;;;;;5110935;28;20415;-73
2022/09/27 02:00:24;;;;;;;6.80;1.23;;;10.60;99.90;;;;;;5115333;27;20835;-73
2022/09/27 02:02:56;;;;;;;3.17;0.30;;;10.60;99.90;;;;;;5119186;27;20475;-73
2022/09/27 02:05:28;;;;;;;3.83;0.57;;;10.60;99.90;;;;;;5110597;27;20462;-73
2022/09/27 02:08:06;;;;;;;7.53;0.40;;;10.60;99.90;;;;;;5110616;28;20484;-73
2022/09/27 02:10:39;;;;;;;4.80;0.40;;;10.50;99.90;;;;;;5110292;28;20400;-73
2022/09/27 02:13:30;;;;;;;3.40;0.45;;;10.50;99.90;;;;;;5108772;27;20400;-73
2022/09/27 02:16:14;;;;;;;4.68;0.30;;;10.50;99.90;;;;;;5110401;28;20813;-73
2022/09/27 02:19:17;;;;;;;5.78;0.52;;;10.50;99.90;;;;;;5117795;27;20482;-73
2022/09/27 02:22:05;;;;;;;3.57;0.30;;;10.50;99.90;;;;;;5110016;27;20751;-73
2022/09/27 02:24:53;;;;;;;3.67;0.60;;;10.50;99.90;;;;;;5098860;27;20937;-73
2022/09/27 02:27:30;;;;;;;4.97;0.40;;;10.50;99.90;;;;;;5106604;27;20419;-73
2022/09/27 02:30:08;;;;;;;4.88;0.50;;;10.50;99.90;;;;;;5111246;28;20818;-74
2022/09/27 02:32:34;;;;;;;8.55;0.80;;;10.50;99.90;;;;;;5109944;27;20452;-74
2022/09/27 02:35:04;;;;;;;3.35;0.40;;;10.50;99.90;;;;;;5111060;27;20455;-73
2022/09/27 02:37:31;;;;;;;7.85;0.57;;;10.50;99.90;;;;;;5110254;27;20405;-73
2022/09/27 02:39:56;;;;;;;4.90;0.32;;;10.40;99.90;;;;;;5109691;27;20403;-74
2022/09/27 02:42:23;;;;;;;3.92;0.45;;;10.50;99.90;;;;;;5109557;28;20396;-74
2022/09/27 02:44:49;;;;;;;4.65;0.75;;;10.50;99.90;;;;;;5109644;28;20443;-73
2022/09/27 02:47:37;;;;;;;5.70;0.68;;;10.50;99.90;;;;;;5109897;27;20732;-75
2022/09/27 02:50:21;;;;;;;4.88;0.38;;;10.50;99.90;;;;;;5128398;27;20434;-74
2022/09/27 02:53:06;;;;;;;4.13;0.40;;;10.50;99.90;;;;;;5107693;28;20481;-74
2022/09/27 02:55:35;;;;;;;6.38;0.32;;;10.50;99.90;;;;;;5109376;28;20781;-74
2022/09/27 02:58:06;;;;;;;3.03;0.30;;;10.40;99.90;;;;;;5109688;27;20396;-74
2022/09/27 03:01:11;;;;;;;3.20;0.20;;;10.40;99.90;;;;;;5110940;27;20413;-74
2022/09/27 03:03:45;;;;;;;4.22;0.30;;;10.40;99.90;;;;;;5126535;27;20499;-74
2022/09/27 03:06:15;;;;;;;5.10;0.40;;;10.40;99.90;;;;;;5109608;28;21825;-75
2022/09/27 03:08:42;;;;;;;6.18;0.60;;;10.40;99.90;;;;;;5109440;28;20396;-74
2022/09/27 03:11:08;;;;;;;4.88;0.20;;;10.40;99.90;;;;;;5096103;27;20419;-74
2022/09/27 03:13:35;;;;;;;5.20;0.40;;;10.30;99.90;;;;;;5109202;28;20408;-74
2022/09/27 03:16:01;;;;;;;5.78;0.50;;;10.30;99.90;;;;;;5096143;28;20474;-74
2022/09/27 03:18:27;;;;;;;3.50;0.38;;;10.40;99.90;;;;;;5109368;27;20397;-74
2022/09/27 03:20:53;;;;;;;2.13;0.30;;;10.30;99.90;;;;;;5109377;28;20403;-74
2022/09/27 03:23:19;;;;;;;3.22;0.40;;;10.30;99.90;;;;;;5108615;28;20416;-74
2022/09/27 03:25:45;;;;;;;5.13;0.25;;;10.30;99.90;;;;;;5107208;28;20397;-73
2022/09/27 03:28:11;;;;;;;4.20;0.40;;;10.30;99.90;;;;;;5101300;27;20418;-73
2022/09/27 03:30:37;;;;;;;3.92;0.30;;;10.30;99.90;;;;;;5113933;27;20905;-73
2022/09/27 03:33:03;;;;;;;5.57;0.40;;;10.30;99.90;;;;;;5107505;28;20397;-74
2022/09/27 03:35:29;;;;;;;5.55;0.57;;;10.30;99.90;;;;;;5107533;28;20470;-73
2022/09/27 03:37:55;;;;;;;3.72;0.30;;;10.30;99.90;;;;;;5108897;27;20877;-72
2022/09/27 03:40:20;;;;;;;6.40;0.40;;;10.30;99.90;;;;;;5108657;28;20407;-74
2022/09/27 03:42:48;;;;;;;4.20;0.30;;;10.30;99.90;;;;;;5107104;28;20762;-73
2022/09/27 03:45:14;;;;;;;5.68;0.60;;;10.30;99.90;;;;;;5106611;27;20427;-73
2022/09/27 03:47:40;;;;;;;5.90;0.65;;;10.30;99.90;;;;;;5108383;28;20483;-72
2022/09/27 03:50:07;;;;;;;7.47;0.40;;;10.30;99.90;;;;;;5108842;27;20416;-73
2022/09/27 03:52:33;;;;;;;3.30;0.20;;;10.20;99.90;;;;;;5108902;28;20407;-74
2022/09/27 03:54:59;;;;;;;3.20;0.20;;;10.20;99.90;;;;;;5109135;28;20408;-73
2022/09/27 03:57:24;;;;;;;5.57;0.40;;;10.20;99.90;;;;;;5108834;28;20408;-73
2022/09/27 03:59:50;;;;;;;5.43;0.47;;;10.20;99.90;;;;;;5108604;28;20423;-73
2022/09/27 04:02:16;;;;;;;6.20;0.30;;;10.20;99.90;;;;;;5114448;27;20420;-73
2022/09/27 04:04:42;;;;;;;4.32;0.63;;;10.20;99.90;;;;;;5128723;27;20410;-73
2022/09/27 04:07:08;;;;;;;6.03;0.30;;;10.20;99.90;;;;;;5114970;27;20541;-73
2022/09/27 04:09:36;;;;;;;4.63;0.30;;;10.10;99.90;;;;;;5115474;27;20914;-73
2022/09/27 04:12:02;;;;;;;4.17;0.43;;;10.10;99.90;;;;;;5107774;27;20408;-73
2022/09/27 04:14:28;;;;;;;3.73;0.30;;;10.20;99.90;;;;;;5108457;28;20396;-73
2022/09/27 04:16:53;;;;;;;5.97;0.97;;;10.10;99.90;;;;;;5108803;27;20414;-73
2022/09/27 04:19:19;;;;;;;3.97;0.43;;;10.10;99.90;;;;;;5109014;27;20767;-73
2022/09/27 04:21:44;;;;;;;5.72;0.60;;;10.20;99.90;;;;;;5108081;27;20479;-73
2022/09/27 04:24:10;;;;;;;6.00;0.50;;;10.10;99.90;;;;;;5106782;28;20828;-73
2022/09/27 04:26:36;;;;;;;4.45;0.70;;;10.10;99.90;;;;;;5107159;28;21469;-73
2022/09/27 04:29:02;;;;;;;4.43;0.35;;;10.10;99.90;;;;;;5108275;28;20406;-73
2022/09/27 04:31:28;;;;;;;6.65;0.52;;;10.00;99.90;;;;;;5108380;27;20396;-74
2022/09/27 04:33:54;;;;;;;3.83;0.30;;;10.00;99.90;;;;;;5106713;28;20783;-74
2022/09/27 04:36:27;;;;;;;4.43;0.30;;;10.00;99.90;;;;;;5107428;28;20407;-73
2022/09/27 04:38:59;;;;;;;4.13;0.45;;;10.00;99.90;;;;;;5108757;28;20385;-73
2022/09/27 04:41:26;;;;;;;7.03;0.40;;;10.00;99.90;;;;;;5107356;28;20395;-74
2022/09/27 04:43:53;;;;;;;4.97;0.38;;;10.00;99.90;;;;;;5107957;28;20416;-74
2022/09/27 04:46:20;;;;;;;3.35;0.40;;;10.00;99.90;;;;;;5106253;28;20457;-74
2022/09/27 04:48:46;;;;;;;4.13;0.20;;;9.90;99.90;;;;;;5103363;28;20495;-74
2022/09/27 04:51:12;;;;;;;5.13;0.30;;;9.90;99.90;;;;;;5108419;28;20750;-73
2022/09/27 04:53:38;;;;;;;6.10;0.47;;;9.90;99.90;;;;;;5120997;27;20460;-74
2022/09/27 04:56:05;;;;;;;3.22;0.30;;;9.90;99.90;;;;;;5107808;28;20392;-74
2022/09/27 04:58:33;;;;;;;6.83;0.40;;;9.90;99.90;;;;;;5104172;28;20512;-74
2022/09/27 05:01:00;;;;;;;5.63;0.60;;;9.90;99.90;;;;;;5103458;28;20420;-70
2022/09/27 05:03:27;;;;;;;4.47;0.32;;;9.90;99.90;;;;;;5108081;28;20427;-74
2022/09/27 05:05:53;;;;;;;4.53;0.30;;;9.90;99.90;;;;;;5113006;27;20806;-73
2022/09/27 05:08:19;;;;;;;4.07;0.30;;;9.90;99.90;;;;;;5129543;27;20406;-73
2022/09/27 05:10:46;;;;;;;8.75;0.50;;;9.90;99.90;;;;;;5120524;27;20398;-74
2022/09/27 05:13:12;;;;;;;4.77;0.60;;;9.90;99.90;;;;;;5116471;27;20443;-73
2022/09/27 05:15:38;;;;;;;4.33;0.40;;;9.90;99.90;;;;;;5122631;27;20491;-73
2022/09/27 05:18:05;;;;;;;3.70;0.43;;;9.90;99.90;;;;;;5109568;28;20408;-73
2022/09/27 05:20:31;;;;;;;4.22;0.43;;;9.80;99.90;;;;;;5110773;28;20422;-73
2022/09/27 05:22:57;;;;;;;2.87;0.20;;;9.80;99.90;;;;;;5123721;27;20395;-73
2022/09/27 05:25:23;;;;;;;5.50;0.32;;;9.80;99.90;;;;;;5131253;27;20911;-72
2022/09/27 05:27:49;;;;;;;4.47;0.40;;;9.80;99.90;;;;;;5118648;27;20483;-71
2022/09/27 05:30:15;;;;;;;4.43;0.40;;;9.80;99.90;;;;;;5110545;28;20427;-71
2022/09/27 05:32:48;;;;;;;4.20;0.80;;;9.80;99.90;;;;;;5110996;28;20437;-73
2022/09/27 05:35:17;;;;;;;4.50;0.80;;;9.80;99.90;;;;;;5110928;28;20889;-71
2022/09/27 05:37:42;;;;;;;3.40;0.30;;;9.80;99.90;;;;;;5103226;27;20414;-71
2022/09/27 05:40:08;;;;;;;5.80;0.40;;;9.80;99.90;;;;;;5118167;27;20393;-73
2022/09/27 05:42:36;;;;;;;4.63;0.40;;;9.80;99.90;;;;;;5096947;28;20865;-71
2022/09/27 05:45:02;;;;;;;3.90;0.30;;;9.90;99.90;;;;;;5110823;27;20930;-73
2022/09/27 05:47:27;;;;;;;5.70;0.80;;;9.80;99.90;;;;;;5110286;27;20408;-71
2022/09/27 05:49:54;;;;;;;3.42;0.40;;;9.80;99.90;;;;;;5111448;27;20398;-71
2022/09/27 05:52:20;;;;;;;4.22;0.50;;;9.80;99.90;;;;;;5109164;27;20517;-71
2022/09/27 05:54:45;;;;;;;4.93;0.45;;;9.80;99.90;;;;;;5110188;27;20479;-73
2022/09/27 05:57:11;;;;;;;4.77;0.50;;;9.80;99.90;;;;;;5110955;27;20400;-73
2022/09/27 05:59:36;;;;;;;3.95;0.32;;;9.80;99.90;;;;;;5110122;27;20483;-73
2022/09/27 06:02:02;;;;;;;3.73;0.40;;;9.80;99.90;;;;;;5109915;27;20415;-72
2022/09/27 06:04:28;;;;;;;3.25;0.30;;;9.80;99.90;;;;;;5110986;27;20477;-74
2022/09/27 06:06:53;;;;;;;2.97;0.30;;;9.80;99.90;;;;;;5109860;27;20770;-72
2022/09/27 06:09:19;;;;;;;5.63;0.30;;;9.80;99.90;;;;;;5109920;27;20475;-72
2022/09/27 06:11:45;;;;;;;1.73;0.20;;;9.80;99.90;;;;;;5110466;27;20490;-74
2022/09/27 06:14:14;;;;;;;4.70;0.30;;;9.80;99.90;;;;;;5110450;27;20430;-72
2022/09/27 06:16:39;;;;;;;4.85;0.30;;;9.80;99.90;;;;;;5110131;27;20390;-72
2022/09/27 06:19:05;;;;;;;2.67;0.20;;;9.80;99.90;;;;;;5108970;28;20400;-72
2022/09/27 06:21:31;;;;;;;4.60;0.30;;;9.80;99.90;;;;;;5109795;27;20392;-73
2022/09/27 06:23:58;;;;;;;3.33;0.27;;;9.80;99.90;;;;;;5110205;28;20511;-72
2022/09/27 06:26:26;;;;;;;4.43;0.45;;;9.80;99.90;;;;;;5108976;27;20784;-72
2022/09/27 06:28:52;;;;;;;4.18;0.30;;;9.80;99.90;;;;;;5110872;27;20398;-72
2022/09/27 06:31:18;;;;;;;3.80;0.35;;;9.80;99.90;;;;;;5109582;27;20396;-74
2022/09/27 06:33:44;;;;;;;6.00;0.85;;;9.80;99.90;;;;;;5110874;27;20393;-74
2022/09/27 06:36:10;;;;;;;4.77;0.40;;;9.90;99.90;;;;;;5110912;27;20461;-72
2022/09/27 06:38:36;;;;;;;5.17;0.50;;;9.80;99.90;;;;;;5110298;27;20438;-73
2022/09/27 06:41:03;;;;;;;4.47;0.47;;;9.80;99.90;;;;;;5110502;27;20459;-72
2022/09/27 06:43:30;;;;;;;4.57;0.60;;;9.90;99.90;;;;;;5110228;27;20420;-73
2022/09/27 06:46:03;;;;;;;5.68;1.30;;;9.90;99.90;;;;;;5097547;27;20490;-74
2022/09/27 06:48:30;;;;;;;4.00;0.85;;;9.90;99.90;;;;;;5110589;27;20396;-74
2022/09/27 06:50:56;;;;;;;3.45;0.25;;;9.90;99.90;;;;;;5109836;28;20746;-74
2022/09/27 06:53:23;;;;;;;4.18;0.30;;;9.90;99.90;;;;;;5123847;27;20512;-74
2022/09/27 06:55:50;;;;;;;4.70;0.50;;;9.90;99.90;;;;;;5111644;28;20400;-72
2022/09/27 07:01:01;;;;;;;2.95;0.30;;;10.00;99.90;;;;;;5111703;28;20400;-73
2022/09/27 07:03:31;;;;;;;3.05;0.50;;;10.10;99.90;;;;;;5111580;28;20466;-72
2022/09/27 07:06:01;;;;;;;3.67;0.47;;;10.10;99.90;;;;;;5113821;28;20902;-74
2022/09/27 07:08:28;;;;;;;4.35;0.30;;;10.10;99.90;;;;;;5113767;28;20773;-73
2022/09/27 07:11:02;;;;;;;3.87;0.30;;;10.10;99.90;;;;;;5127599;27;20406;-74
2022/09/27 07:13:33;;;;;;;3.03;0.40;;;10.10;99.90;;;;;;5108115;27;20403;-72
2022/09/27 07:15:59;;;;;;;1.98;0.10;;;10.10;99.90;;;;;;5134940;27;20410;-73
2022/09/27 07:18:26;;;;;;;3.83;0.33;;;10.10;99.90;;;;;;5132703;27;20402;-73
2022/09/27 07:20:52;;;;;;;2.95;0.20;;;10.10;99.90;;;;;;5134670;27;20395;-74
2022/09/27 07:23:18;;;;;;;2.23;0.40;;;10.00;99.90;;;;;;5134813;27;20431;-74
2022/09/27 07:25:44;;;;;;;4.45;0.20;;;10.10;99.90;;;;;;5132491;27;20509;-74
2022/09/27 07:28:14;;;;;;;3.83;0.27;;;10.10;99.90;;;;;;5130581;27;20473;-74
2022/09/27 07:30:40;;;;;;;6.15;0.43;;;10.10;99.90;;;;;;5130584;27;20399;-74
2022/09/27 07:33:07;;;;;;;4.15;0.30;;;10.10;99.90;;;;;;5129460;27;20405;-74
2022/09/27 07:35:35;;;;;;;2.83;0.20;;;10.00;99.90;;;;;;5129005;27;20410;-73
2022/09/27 07:38:02;;;;;;;3.10;0.20;;;10.10;99.90;;;;;;5127496;27;20953;-73
2022/09/27 07:40:28;;;;;;;4.60;0.25;;;10.00;99.90;;;;;;5128448;27;20408;-73
2022/09/27 07:42:55;;;;;;;2.92;0.30;;;10.00;99.90;;;;;;5131327;27;20463;-72
2022/09/27 07:45:22;;;;;;;3.70;0.40;;;10.00;99.90;;;;;;5130818;27;20427;-72
2022/09/27 07:47:48;;;;;;;3.23;0.40;;;10.00;99.90;;;;;;5131089;27;20459;-73
2022/09/27 07:50:13;;;;;;;2.40;0.30;;;10.00;99.90;;;;;;5131762;27;20479;-72
2022/09/27 07:52:41;;;;;;;4.05;0.40;;;10.00;99.90;;;;;;5135096;27;20461;-72
2022/09/27 07:55:09;;;;;;;3.15;0.32;;;9.90;99.90;;;;;;5135438;27;20825;-73
2022/09/27 07:57:35;;;;;;;4.18;0.20;;;10.00;99.90;;;;;;5132004;27;20407;-73
2022/09/27 08:00:03;;;;;;;3.30;0.30;;;10.00;99.90;;;;;;5129325;27;20575;-74
2022/09/27 08:02:31;;;;;;;4.67;0.73;;;10.00;99.90;;;;;;5129517;27;20413;-72
2022/09/27 08:04:58;;;;;;;4.15;0.30;;;10.00;99.90;;;;;;5127123;27;20509;-73
2022/09/27 08:07:23;;;;;;;4.47;0.30;;;10.00;99.90;;;;;;5128589;27;20846;-73
2022/09/27 08:09:49;;;;;;;2.83;0.30;;;10.00;99.90;;;;;;5114183;27;20726;-73
2022/09/27 08:12:15;;;;;;;4.85;0.60;;;10.10;99.90;;;;;;5128926;27;20420;-73
2022/09/27 08:14:42;;;;;;;1.75;0.30;;;10.10;99.90;;;;;;5111373;27;20797;-73
2022/09/27 08:17:10;;;;;;;3.22;0.30;;;10.10;99.90;;;;;;5106829;28;20415;-73
2022/09/27 08:19:36;;;;;;;4.18;0.40;;;10.20;99.90;;;;;;5108685;27;20392;-73
2022/09/27 08:22:01;;;;;;;4.50;0.63;;;10.40;99.90;;;;;;5109113;28;20399;-73
2022/09/27 08:24:28;;;;;;;3.60;0.47;;;10.40;99.90;;;;;;5107570;28;20813;-73
2022/09/27 08:26:53;;;;;;;4.00;0.70;;;10.50;99.90;;;;;;5107903;28;20413;-73
2022/09/27 08:29:19;;;;;;;4.65;0.40;;;10.70;99.90;;;;;;5108864;28;20398;-73
2022/09/27 08:31:45;;;;;;;3.97;0.43;;;10.80;99.90;;;;;;5108131;28;20395;-73
2022/09/27 08:34:10;;;;;;;3.80;0.50;;;10.80;99.90;;;;;;5108392;28;20399;-74
2022/09/27 08:36:36;;;;;;;4.38;0.40;;;10.80;99.90;;;;;;5108100;28;20445;-73
2022/09/27 08:39:03;;;;;;;6.03;0.70;;;10.90;99.90;;;;;;5109072;28;20403;-73
2022/09/27 08:41:44;;;;;;;3.55;0.43;;;11.00;99.90;;;;;;5110044;27;20443;-72
2022/09/27 08:44:16;;;;;;;6.85;0.60;;;11.00;99.90;;;;;;5112372;27;20987;-73
2022/09/27 08:46:54;;;;;;;2.40;0.40;;;11.20;99.90;;;;;;5112587;27;20438;-73
2022/09/27 08:49:29;;;;;;;3.92;0.47;;;11.30;99.90;;;;;;5100503;27;20404;-73
2022/09/27 08:51:57;;;;;;;3.42;0.50;;;11.40;99.90;;;;;;5111202;27;20912;-73
2022/09/27 08:54:28;;;;;;;4.85;0.60;;;11.60;99.90;;;;;;5112093;27;20753;-73
2022/09/27 08:57:03;;;;;;;3.88;0.60;;;11.70;99.90;;;;;;5112051;27;20754;-73
2022/09/27 08:59:36;;;;;;;3.38;0.30;;;12.00;99.90;;;;;;5111064;28;20937;-73
2022/09/27 09:02:03;;;;;;;3.10;0.38;;;12.30;99.90;;;;;;5111510;27;20400;-74
2022/09/27 09:04:36;;;;;;;2.78;0.30;;;12.60;99.90;;;;;;5111271;28;21040;-73
2022/09/27 09:07:26;;;;;;;2.90;0.47;;;12.60;99.90;;;;;;5111653;28;20465;-73
2022/09/27 09:12:45;;;;;;;9.07;1.33;;;12.70;99.90;;;;;;5110683;28;20762;-75
2022/09/27 09:13:17;;;;;;;4.10;0.30;;;12.60;99.90;;;;;;5108727;28;20432;-73
2022/09/27 09:16:06;;;;;;;3.27;0.30;;;12.40;99.90;;;;;;5111408;27;20404;-73
2022/09/27 09:19:14;;;;;;;3.08;0.40;;;12.30;99.90;;;;;;5129423;27;20768;-73
2022/09/27 09:22:27;;;;;;;3.45;0.20;;;12.30;99.90;;;;;;5111965;27;20767;-73
2022/09/27 09:25:04;;;;;;;2.65;0.20;;;12.50;99.90;;;;;;5116158;27;20431;-73
2022/09/27 09:27:50;;;;;;;2.10;0.20;;;13.00;99.90;;;;;;5113999;27;20404;-73
2022/09/27 09:30:24;;;;;;;1.13;0.20;;;13.80;99.90;;;;;;5126349;27;20402;-73
2022/09/27 09:33:09;;;;;;;3.38;0.40;;;14.30;99.90;;;;;;5121515;27;20441;-73
2022/09/27 09:35:41;;;;;;;2.88;0.20;;;14.50;99.90;;;;;;5110503;28;20921;-73
2022/09/27 09:38:37;;;;;;;3.72;0.30;;;14.70;99.90;;;;;;5111607;28;20435;-73
2022/09/27 09:41:12;;;;;;;0.95;0.15;;;14.50;99.90;;;;;;5112199;27;20396;-73
2022/09/27 09:43:50;;;;;;;3.10;0.40;;;13.90;99.90;;;;;;5109999;27;20483;-73
2022/09/27 09:46:29;;;;;;;4.10;0.40;;;13.40;99.90;;;;;;5110888;28;20422;-72
2022/09/27 09:49:29;;;;;;;3.13;0.45;;;13.10;99.90;;;;;;5112144;27;20742;-72
2022/09/27 09:52:08;;;;;;;2.22;0.60;;;12.70;99.90;;;;;;5129878;27;20765;-74
2022/09/27 09:54:57;;;;;;;2.63;0.35;;;12.50;99.90;;;;;;5131005;27;20908;-74
2022/09/27 09:57:23;;;;;;;3.13;0.38;;;12.30;99.90;;;;;;5113349;27;20956;-75
2022/09/27 10:00:03;;;;;;;2.80;0.30;;;12.10;99.90;;;;;;5121880;27;20452;-74
2022/09/27 10:02:39;;;;;;;2.20;0.30;;;12.00;99.90;;;;;;5124470;27;20431;-74
2022/09/27 10:05:05;;;;;;;2.65;0.30;;;12.00;99.90;;;;;;5110778;27;20519;-74
2022/09/27 10:07:33;;;;;;;3.63;0.20;;;12.10;99.90;;;;;;5130922;27;20399;-74
2022/09/27 10:10:01;;;;;;;0.80;0.10;;;12.20;99.90;;;;;;5114768;27;20435;-74
2022/09/27 10:12:27;;;;;;;3.20;0.30;;;12.30;99.90;;;;;;5110716;28;20400;-74
2022/09/27 10:14:56;;;;;;;2.15;0.20;;;12.30;99.90;;;;;;5123798;27;20401;-74
2022/09/27 10:17:27;;;;;;;0.90;0.10;;;12.40;99.90;;;;;;5108812;27;20439;-73
2022/09/27 10:19:57;;;;;;;2.67;0.20;;;12.40;99.90;;;;;;5111444;27;20397;-74
2022/09/27 10:22:32;;;;;;;1.05;0.10;;;12.30;99.90;;;;;;5130586;27;20418;-74
2022/09/27 10:25:01;;;;;;;0.73;0.10;;;12.40;99.90;;;;;;5129686;27;20519;-74
2022/09/27 10:27:36;;;;;;;4.00;0.20;;;12.30;99.90;;;;;;5130878;27;20409;-73
2022/09/27 10:30:03;;;;;;;2.33;0.40;;;12.40;99.90;;;;;;5124442;27;20392;-74
2022/09/27 10:32:35;;;;;;;3.80;0.30;;;12.30;99.90;;;;;;5120617;27;20928;-73
2022/09/27 10:35:28;;;;;;;2.13;0.20;;;12.30;99.90;;;;;;5123891;27;20396;-73
2022/09/27 10:38:20;;;;;;;1.30;0.10;;;12.20;99.90;;;;;;5112912;27;20788;-73
2022/09/27 10:40:48;;;;;;;2.67;0.10;;;12.00;99.90;;;;;;5129773;27;20399;-73
2022/09/27 10:43:33;;;;;;;3.77;0.37;;;11.90;99.90;;;;;;5127672;27;20447;-73
2022/09/27 10:46:07;;;;;;;2.73;0.10;;;11.80;99.90;;;;;;5129253;27;20442;-73
2022/09/27 10:48:33;;;;;;;1.55;0.15;;;11.80;99.90;;;;;;5128334;27;20952;-73
2022/09/27 10:51:04;;;;;;;1.75;0.30;;;11.70;99.90;;;;;;5129283;27;20797;-73
2022/09/27 10:53:32;;;;;;;1.50;0.10;;;11.80;99.90;;;;;;5129636;27;20397;-73
2022/09/27 10:55:59;;;;;;;0.80;0.10;;;11.60;99.90;;;;;;5129589;27;20438;-73
2022/09/27 10:58:32;;;;;;;2.50;0.20;;;11.60;99.90;;;;;;5128116;27;20391;-73
2022/09/27 11:01:07;;;;;;;1.88;0.08;;;11.40;99.90;;;;;;5128702;27;20768;-72
2022/09/27 11:03:44;;;;;;;0.83;0.10;;;11.40;99.90;;;;;;5128320;27;20391;-73
2022/09/27 11:06:26;;;;;;;2.10;0.10;;;11.30;99.90;;;;;;5120206;27;20392;-72
2022/09/27 11:08:54;;;;;;;1.20;0.20;;;11.30;99.90;;;;;;5127808;27;20432;-73
2022/09/27 11:11:25;;;;;;;1.40;0.20;;;11.30;99.90;;;;;;5129034;27;20907;-73
2022/09/27 11:14:06;;;;;;;1.60;0.10;;;11.30;99.90;;;;;;5128906;27;20483;-74
2022/09/27 11:16:59;;;;;;;2.27;0.20;;;11.40;99.90;;;;;;5128089;27;20399;-73
2022/09/27 11:20:00;;;;;;;1.40;0.10;;;11.40;99.90;;;;;;5116593;27;20898;-74
2022/09/27 11:22:49;;;;;;;2.20;0.20;;;11.50;99.90;;;;;;5108194;27;20892;-73
2022/09/27 11:25:32;;;;;;;1.48;0.10;;;11.70;99.90;;;;;;5128547;27;20428;-73
2022/09/27 11:28:28;;;;;;;3.03;0.30;;;11.70;99.90;;;;;;5126250;27;20785;-73
2022/09/27 11:31:21;;;;;;;1.75;0.10;;;11.70;99.90;;;;;;5128314;27;20402;-73
2022/09/27 11:34:01;;;;;;;0.93;0.20;;;11.70;99.90;;;;;;5108653;27;20438;-73
2022/09/27 11:37:01;;;;;;;2.40;0.20;;;11.60;99.90;;;;;;5127770;27;20455;-73
2022/09/27 11:40:11;;;;;;;2.43;0.23;;;11.70;99.90;;;;;;5126729;27;20924;-72
2022/09/27 11:42:56;;;;;;;1.87;0.20;;;12.00;99.90;;;;;;5127852;27;20434;-73
2022/09/27 11:45:40;;;;;;;2.08;0.20;;;12.60;99.90;;;;;;5127678;27;20429;-73
2022/09/27 11:48:17;;;;;;;1.25;0.10;;;12.80;99.90;;;;;;5128764;27;20394;-73
2022/09/27 11:51:01;;;;;;;2.90;0.17;;;12.90;99.90;;;;;;5126093;27;20407;-73
2022/09/27 11:53:38;;;;;;;1.95;0.20;;;12.90;99.90;;;;;;5107197;28;20914;-73
2022/09/27 11:56:10;;;;;;;1.77;0.17;;;13.00;99.90;;;;;;5107470;27;20779;-73
2022/09/27 11:58:57;;;;;;;3.20;0.20;;;13.00;99.90;;;;;;5108104;28;20401;-73
2022/09/27 12:01:45;;;;;;;2.03;0.05;;;13.10;99.90;;;;;;5108213;28;20434;-73
2022/09/27 12:04:34;;;;;;;1.50;0.10;;;13.20;99.90;;;;;;5096992;27;20433;-75
2022/09/27 12:07:15;;;;;;;2.35;0.20;;;13.80;99.90;;;;;;5127710;27;20473;-73
2022/09/27 12:09:48;;;;;;;2.20;0.20;;;14.70;99.90;;;;;;5128414;27;20399;-73
2022/09/27 12:12:19;;;;;;;1.98;0.13;;;15.10;99.90;;;;;;5114753;27;20406;-74
2022/09/27 12:15:11;;;;;;;1.15;0.10;;;15.10;99.90;;;;;;5126637;27;20425;-73
2022/09/27 12:17:44;;;;;;;2.15;0.20;;;14.80;99.90;;;;;;5128819;27;20402;-74
2022/09/27 12:20:22;;;;;;;0.70;0.00;;;14.30;99.90;;;;;;5109084;27;20450;-73
2022/09/27 12:23:04;;;;;;;1.27;0.07;;;13.80;99.90;;;;;;5089910;28;20412;-72
2022/09/27 12:25:39;;;;;;;0.63;0.10;;;13.40;99.90;;;;;;5095540;28;20519;-72
2022/09/27 12:28:25;;;;;;;1.70;0.10;;;13.10;99.90;;;;;;5110458;28;20779;-72
2022/09/27 12:31:01;;;;;;;2.00;0.10;;;13.00;99.90;;;;;;5115492;27;20412;-72
2022/09/27 12:34:15;;;;;;;0.75;0.10;;;13.70;99.90;;;;;;5093577;28;20404;-73
2022/09/27 12:36:51;;;;;;;2.00;0.10;;;14.30;99.90;;;;;;5104215;28;20408;-72
2022/09/27 12:39:26;;;;;;;2.70;0.30;;;14.00;99.90;;;;;;5108461;28;20408;-73
2022/09/27 12:42:00;;;;;;;0.65;0.10;;;13.80;99.90;;;;;;5107893;28;20408;-73
2022/09/27 12:44:30;;;;;;;2.35;0.30;;;13.60;99.90;;;;;;5108559;28;20519;-72
2022/09/27 12:47:19;;;;;;;2.78;0.10;;;13.30;99.90;;;;;;5108930;28;20397;-73
2022/09/27 12:50:23;;;;;;;2.58;0.25;;;13.10;99.90;;;;;;5095731;28;20469;-73
2022/09/27 12:52:55;;;;;;;5.20;1.08;;;12.90;99.90;;;;;;5104464;28;20412;-72
2022/09/27 12:55:45;;;;;;;5.47;1.33;;;12.80;99.90;;;;;;5109514;28;20487;-72
2022/09/27 12:58:35;;;;;;;2.88;0.47;;;12.90;99.90;;;;;;5089263;28;20416;-73
2022/09/27 13:01:39;;;;;;;3.00;0.32;;;13.20;99.90;;;;;;5095983;28;20940;-73
2022/09/27 13:04:44;;;;;;;3.40;0.40;;;14.10;99.90;;;;;;5096037;28;20990;-73
2022/09/27 13:07:12;;;;;;;6.40;3.00;;;15.10;99.90;;;;;;5108979;28;20538;-73
2022/09/27 13:10:08;;;;;;;5.72;1.23;;;15.90;99.90;;;;;;5108058;28;20474;-73
2022/09/27 13:12:35;;;;;;;2.08;0.80;;;16.60;99.90;;;;;;5097108;27;20461;-73
2022/09/27 13:15:13;;;;;;;1.20;0.20;;;17.10;99.90;;;;;;5109116;28;20400;-73
2022/09/27 13:17:39;;;;;;;2.42;0.80;;;17.90;99.90;;;;;;5106896;28;20481;-73
2022/09/27 13:20:30;;;;;;;1.52;0.43;;;18.20;99.90;;;;;;5107555;28;20815;-74
2022/09/27 13:22:57;;;;;;;2.30;0.63;;;18.20;99.90;;;;;;5107781;28;20408;-73